createdAt,value
2023-01-18T08:50:53.368Z,98761.89
2023-01-18T08:51:58.771Z,98739.66
2023-01-18T08:53:02.384Z,98748.31
2023-01-18T08:54:10.318Z,98744.34
2023-01-18T08:55:14.616Z,98735.90
2023-01-18T08:56:19.064Z,98740.59
2023-01-18T08:57:22.367Z,98743.59
2023-01-18T08:58:25.873Z,98735.90
2023-01-18T08:59:28.136Z,98743.23
2023-01-18T09:00:32.671Z,98730.33
2023-01-18T09:01:36.419Z,98734.41
2023-01-18T09:02:39.744Z,98734.27
2023-01-18T09:03:43.291Z,98727.30
2023-01-18T09:04:47.310Z,98738.00
2023-01-18T09:05:52.381Z,98732.59
2023-01-18T09:06:54.642Z,98734.08
2023-01-18T09:07:58.167Z,98726.47
2023-01-18T09:09:02.060Z,98719.63
2023-01-18T09:10:08.298Z,98725.89
2023-01-18T09:11:12.530Z,98726.38
2023-01-18T09:12:15.918Z,98721.69
2023-01-18T09:13:20.975Z,98708.47
2023-01-18T09:14:25.586Z,98715.19
2023-01-18T09:15:30.509Z,98716.16
2023-01-18T09:16:35.068Z,98717.31
2023-01-18T09:17:38.578Z,98727.58
2023-01-18T09:18:44.061Z,98720.20
2023-01-18T09:19:50.919Z,98725.25
2023-01-18T09:20:55.039Z,98726.45
2023-01-18T09:21:58.545Z,98729.45
2023-01-18T09:23:03.100Z,98713.77
2023-01-18T09:24:07.255Z,98721.33
2023-01-18T09:25:11.944Z,98720.86
2023-01-18T09:26:20.588Z,98720.12
2023-01-18T09:27:24.148Z,98716.41
2023-01-18T09:28:28.137Z,98717.68
2023-01-18T09:29:32.031Z,98707.63
2023-01-18T09:30:35.292Z,98708.71
2023-01-18T09:31:38.107Z,98721.69
2023-01-18T09:32:42.450Z,98714.91
2023-01-18T09:33:53.312Z,98708.28
2023-01-18T09:34:54.286Z,98718.33
2023-01-18T09:35:57.793Z,98717.95
2023-01-18T09:37:11.857Z,98706.01
2023-01-18T09:38:17.533Z,98705.05
2023-01-18T09:39:21.377Z,98708.66
2023-01-18T09:40:26.633Z,98701.31
2023-01-18T09:41:34.422Z,98704.67
2023-01-18T09:42:39.833Z,98696.14
2023-01-18T09:43:47.835Z,98697.45
2023-01-18T09:44:54.659Z,98690.95
2023-01-18T09:45:58.061Z,98702.56
2023-01-18T09:47:15.027Z,98696.77
2023-01-18T09:48:36.222Z,98701.84
2023-01-18T09:49:56.747Z,98708.94
2023-01-18T09:51:01.892Z,98702.11
2023-01-18T09:52:25.586Z,98699.59
2023-01-18T09:53:41.887Z,98697.53
2023-01-18T09:54:48.090Z,98698.95
2023-01-18T09:56:04.608Z,98702.05
2023-01-18T09:57:12.616Z,98706.06
2023-01-18T09:58:19.651Z,98702.83
2023-01-18T09:59:33.340Z,98716.23
2023-01-18T10:00:39.627Z,98702.23
2023-01-18T10:01:42.807Z,98695.97
2023-01-18T10:02:47.941Z,98696.94
2023-01-18T10:03:53.273Z,98701.40
2023-01-18T10:05:01.257Z,98693.58
2023-01-18T10:06:11.641Z,98691.39
2023-01-18T10:07:26.818Z,98687.33
2023-01-18T10:08:30.036Z,98686.91
2023-01-18T10:09:38.684Z,98688.09
2023-01-18T10:10:44.577Z,98682.92
2023-01-18T10:12:05.964Z,98686.86
2023-01-18T10:13:26.578Z,98686.23
2023-01-18T10:14:36.766Z,98680.47
2023-01-18T14:03:07.780Z,98651.07
2023-01-18T14:04:30.416Z,98654.28
2023-01-18T14:05:41.311Z,98660.16
2023-01-18T14:06:45.770Z,98657.22
2023-01-18T14:07:52.200Z,98648.70
2023-01-18T14:08:57.597Z,98648.55
2023-01-18T14:10:02.564Z,98651.64
2023-01-18T14:11:12.733Z,98641.98
2023-01-18T14:12:16.981Z,98637.19
2023-01-18T14:13:22.463Z,98646.84
2023-01-18T14:14:27.953Z,98648.27
2023-01-18T14:15:34.811Z,98649.67
2023-01-18T14:16:40.292Z,98652.33
2023-01-18T14:17:57.764Z,98653.45
2023-01-18T14:18:51.182Z,98653.20
2023-01-18T14:20:03.645Z,98659.22
2023-01-18T14:22:37.087Z,98660.58
2023-01-18T14:23:44.199Z,98659.60
2023-01-18T14:24:50.668Z,98664.08
2023-01-18T14:25:59.833Z,98649.12
2023-01-18T14:27:04.270Z,98661.42
2023-01-18T14:28:15.190Z,98658.63
2023-01-18T14:29:20.296Z,98662.12
2023-01-18T14:30:25.331Z,98658.91
2023-01-18T14:31:30.649Z,98658.77
2023-01-18T14:32:41.599Z,98667.15
2023-01-18T14:33:44.880Z,98655.72
2023-01-18T14:35:00.686Z,98670.50
2023-01-18T14:36:07.751Z,98664.80
2023-01-18T14:37:30.662Z,98654.98
2023-01-18T14:38:34.245Z,98660.47
2023-01-18T14:39:38.313Z,98657.92
2023-01-18T14:40:45.643Z,98659.46
2023-01-18T14:41:51.989Z,98654.15
2023-01-18T14:42:56.328Z,98658.91
2023-01-18T14:43:59.826Z,98658.76
2023-01-18T14:45:04.053Z,98669.70
2023-01-18T14:46:09.579Z,98669.00
2023-01-18T14:47:23.859Z,98662.31
2023-01-18T14:48:23.596Z,98664.52
2023-01-18T14:49:28.212Z,98663.41
2023-01-18T14:50:33.721Z,98661.73
2023-01-18T14:51:40.289Z,98662.29
2023-01-18T14:52:43.631Z,98669.84
2023-01-18T14:53:48.209Z,98675.81
2023-01-18T14:54:53.051Z,98684.20
2023-01-18T14:56:07.422Z,98680.04
2023-01-18T14:57:14.576Z,98685.46
2023-01-18T14:58:18.590Z,98687.86
2023-01-18T14:59:23.941Z,98681.44
2023-01-18T15:00:27.689Z,98690.09
2023-01-18T15:01:36.070Z,98686.05
2023-01-18T15:02:39.798Z,98684.09
2023-01-18T15:03:42.192Z,98678.08
2023-01-18T15:04:50.400Z,98683.39
2023-01-18T15:05:55.459Z,98682.27
2023-01-18T15:07:05.053Z,98688.98
2023-01-18T15:08:09.147Z,98691.50
2023-01-18T15:09:14.254Z,98694.56
2023-01-18T15:10:18.784Z,98685.91
2023-01-18T15:11:24.969Z,98688.70
2023-01-18T15:12:29.922Z,98686.33
2023-01-18T15:13:36.319Z,98686.61
2023-01-18T15:14:41.800Z,98690.38
2023-01-18T15:15:46.226Z,98684.23
2023-01-18T15:16:51.614Z,98699.44
2023-01-18T15:18:00.772Z,98701.95
2023-01-18T15:19:03.843Z,98707.41
2023-01-18T15:20:09.145Z,98711.19
2023-01-18T15:21:14.185Z,98709.08
2023-01-18T15:22:17.185Z,98705.45
2023-01-18T15:23:20.473Z,98713.86
2023-01-18T15:24:24.523Z,98706.45
2023-01-18T15:25:29.354Z,98713.72
2023-01-18T15:26:43.537Z,98699.88
2023-01-18T15:27:51.522Z,98699.72
2023-01-18T15:28:55.654Z,98709.67
2023-01-18T15:30:00.456Z,98713.83
2023-01-18T15:31:10.419Z,98716.94
2023-01-18T15:32:21.008Z,98723.78
2023-01-18T15:33:25.757Z,98726.58
2023-01-18T15:34:36.712Z,98726.28
2023-01-18T15:35:40.288Z,98736.73
2023-01-18T15:36:44.211Z,98730.02
2023-01-18T15:37:47.366Z,98737.88
2023-01-18T15:38:50.509Z,98731.03
2023-01-18T15:39:59.311Z,98739.16
2023-01-18T15:41:11.063Z,98741.67
2023-01-18T15:42:16.282Z,98743.22
2023-01-18T15:43:24.567Z,98745.88
2023-01-18T15:44:37.688Z,98746.98
2023-01-18T15:45:43.091Z,98744.17
2023-01-18T15:46:47.717Z,98748.92
2023-01-18T15:47:56.160Z,98749.20
2023-01-18T15:48:59.347Z,98753.94
2023-01-18T15:50:03.696Z,98753.68
2023-01-18T15:51:08.540Z,98764.16
2023-01-18T15:52:12.026Z,98774.93
2023-01-18T15:53:32.147Z,98767.66
2023-01-18T15:54:35.753Z,98766.52
2023-01-18T15:55:39.871Z,98764.56
2023-01-18T15:56:46.090Z,98759.36
2023-01-18T15:57:54.824Z,98761.88
2023-01-18T15:59:02.610Z,98778.66
2023-01-18T16:00:05.496Z,98770.86
2023-01-18T16:01:16.658Z,98772.00
2023-01-18T16:02:20.952Z,98769.05
2023-01-18T16:03:26.245Z,98782.89
2023-01-18T16:04:30.274Z,98776.72
2023-01-18T16:05:35.451Z,98778.83
2023-01-18T16:06:40.940Z,98777.56
2023-01-18T16:07:45.270Z,98779.38
2023-01-18T16:08:58.906Z,98778.55
2023-01-18T16:10:09.120Z,98784.70
2023-01-18T16:11:14.501Z,98786.23
2023-01-18T16:12:19.130Z,98789.87
2023-01-18T16:13:33.802Z,98785.95
2023-01-18T16:14:39.810Z,98785.28
2023-01-18T16:15:44.273Z,98774.48
2023-01-18T16:16:48.202Z,98772.81
2023-01-18T16:17:53.059Z,98779.83
2023-01-18T16:19:09.169Z,98774.23
2023-01-18T16:20:15.540Z,98770.61
2023-01-18T16:21:25.591Z,98770.75
2023-01-18T16:22:30.271Z,98778.97
2023-01-18T16:23:32.733Z,98766.84
2023-01-18T16:24:36.982Z,98749.50
2023-01-18T16:25:41.517Z,98764.18
2023-01-18T16:26:44.610Z,98760.11
2023-01-18T16:27:52.923Z,98760.55
2023-01-18T16:29:09.147Z,98757.89
2023-01-18T16:30:16.841Z,98752.30
2023-01-18T16:31:23.488Z,98760.13
2023-01-18T16:32:31.765Z,98760.83
2023-01-18T16:33:35.616Z,98758.72
2023-01-18T16:34:37.962Z,98767.23
2023-01-18T16:35:43.612Z,98772.00
2023-01-18T16:36:47.300Z,98770.75
2023-01-18T16:37:51.988Z,98763.63
2023-01-18T16:38:55.654Z,98771.16
2023-01-18T16:39:59.061Z,98775.20
2023-01-18T16:41:02.543Z,98772.84
2023-01-18T16:42:06.915Z,98785.00
2023-01-18T16:43:15.540Z,98781.78
2023-01-18T16:44:20.593Z,98782.33
2023-01-18T16:45:24.302Z,98785.55
2023-01-18T16:46:29.055Z,98781.91
2023-01-18T16:47:32.595Z,98788.75
2023-01-18T16:48:38.881Z,98785.42
2023-01-18T16:49:45.612Z,98779.53
2023-01-18T16:50:49.859Z,98783.73
2023-01-18T16:51:53.549Z,98788.77
2023-01-18T16:52:56.768Z,98785.14
2023-01-18T16:54:00.483Z,98783.61
2023-01-18T16:55:03.695Z,98783.44
2023-01-18T16:56:10.561Z,98778.42
2023-01-18T16:57:15.080Z,98789.59
2023-01-18T16:58:21.765Z,98782.47
2023-01-18T16:59:25.431Z,98790.86
2023-01-18T17:00:39.205Z,98789.18
2023-01-18T17:01:42.625Z,98785.55
2023-01-18T17:02:46.809Z,98789.59
2023-01-18T17:03:51.792Z,98788.34
2023-01-18T17:04:55.177Z,98790.73
2023-01-18T17:05:59.104Z,98795.47
2023-01-18T17:07:03.258Z,98804.13
2023-01-18T17:08:06.839Z,98809.02
2023-01-18T17:09:22.566Z,98809.72
2023-01-18T17:10:30.893Z,98823.97
2023-01-18T17:11:34.275Z,98817.25
2023-01-18T17:12:37.795Z,98812.64
2023-01-18T17:13:41.316Z,98827.03
2023-01-18T17:14:44.685Z,98817.25
2023-01-18T17:15:48.016Z,98815.03
2023-01-18T17:16:50.593Z,98821.58
2023-01-18T17:17:56.769Z,98819.23
2023-01-18T17:19:01.420Z,98825.34
2023-01-18T17:20:05.571Z,98818.36
2023-01-18T17:21:11.927Z,98830.25
2023-01-18T17:22:15.496Z,98837.38
2023-01-18T17:23:19.102Z,98834.45
2023-01-18T17:24:25.416Z,98832.91
2023-01-18T17:25:30.275Z,98835.26
2023-01-18T17:26:35.487Z,98843.66
2023-01-18T17:27:39.175Z,98840.87
2023-01-18T17:28:43.728Z,98840.42
2023-01-18T17:29:48.171Z,98839.02
2023-01-18T17:30:53.265Z,98847.67
2023-01-18T17:31:56.751Z,98835.38
2023-01-18T17:33:00.880Z,98833.61
2023-01-18T17:34:07.965Z,98830.95
2023-01-18T17:35:11.444Z,98832.77
2023-01-18T17:36:14.725Z,98829.69
2023-01-18T17:37:18.020Z,98838.08
2023-01-18T17:38:24.594Z,98843.93
2023-01-18T17:39:37.328Z,98836.80
2023-01-18T17:40:40.151Z,98842.55
2023-01-18T17:41:38.427Z,98839.77
2023-01-18T17:42:41.293Z,98842.24
2023-01-18T17:43:44.493Z,98843.78
2023-01-18T17:44:47.601Z,98858.02
2023-01-18T17:45:59.846Z,98852.02
2023-01-18T17:46:55.258Z,98863.78
2023-01-18T17:47:58.721Z,98864.17
2023-01-18T17:49:04.624Z,98860.95
2023-01-18T17:50:11.736Z,98864.17
2023-01-18T17:51:16.341Z,98872.27
2023-01-18T17:52:18.686Z,98863.20
2023-01-18T17:53:23.048Z,98870.71
2023-01-18T17:54:26.644Z,98876.74
2023-01-18T17:55:34.700Z,98870.59
2023-01-18T17:56:34.066Z,98862.63
2023-01-18T17:57:37.382Z,98864.71
2023-01-18T17:58:54.863Z,98860.94
2023-01-18T18:00:01.035Z,98853.13
2023-01-18T18:01:13.292Z,98863.28
2023-01-18T18:02:16.993Z,98868.05
2023-01-18T18:03:20.133Z,98869.47
2023-01-18T18:04:23.540Z,98869.05
2023-01-18T18:05:26.753Z,98861.66
2023-01-18T18:06:32.221Z,98874.22
2023-01-18T18:07:36.387Z,98876.61
2023-01-18T18:08:39.785Z,98878.11
2023-01-18T18:09:46.411Z,98882.16
2023-01-18T18:10:51.526Z,98884.69
2023-01-18T18:11:58.340Z,98883.66
2023-01-18T18:13:02.355Z,98881.72
2023-01-18T18:14:07.202Z,98893.75
2023-01-18T18:15:10.633Z,98900.16
2023-01-18T18:16:18.259Z,98902.00
2023-01-18T18:17:21.186Z,98905.49
2023-01-18T18:18:26.162Z,98903.78
2023-01-18T18:19:29.668Z,98907.28
2023-01-18T18:20:32.845Z,98916.92
2023-01-18T18:21:36.471Z,98920.87
2023-01-18T18:22:39.141Z,98932.66
2023-01-18T18:23:42.755Z,98938.28
2023-01-18T18:24:46.372Z,98935.05
2023-01-18T18:25:50.172Z,98929.09
2023-01-18T18:26:55.249Z,98933.45
2023-01-18T18:28:00.139Z,98938.05
2023-01-18T18:29:05.791Z,98941.26
2023-01-18T18:30:10.075Z,98936.95
2023-01-18T18:31:16.274Z,98943.48
2023-01-18T18:32:19.244Z,98937.47
2023-01-18T18:33:23.691Z,98938.05
2023-01-18T18:34:28.660Z,98933.42
2023-01-18T18:35:32.580Z,98926.44
2023-01-18T18:36:36.735Z,98918.89
2023-01-18T18:37:40.323Z,98923.59
2023-01-18T18:38:44.798Z,98924.86
2023-01-18T18:39:48.377Z,98924.56
2023-01-18T18:40:51.570Z,98937.44
2023-01-18T18:41:55.110Z,98927.34
2023-01-18T18:43:03.335Z,98934.34
2023-01-18T18:44:08.192Z,98933.81
2023-01-18T18:45:12.287Z,98924.75
2023-01-18T18:46:15.870Z,98929.64
2023-01-18T18:47:21.996Z,98937.98
2023-01-18T18:48:29.139Z,98939.75
2023-01-18T18:49:35.732Z,98934.87
2023-01-18T18:50:41.494Z,98925.23
2023-01-18T18:51:45.001Z,98928.92
2023-01-18T18:52:48.723Z,98935.20
2023-01-18T18:53:52.460Z,98931.48
2023-01-18T18:54:55.987Z,98934.40
2023-01-18T18:55:59.849Z,98931.88
2023-01-18T18:57:02.827Z,98927.28
2023-01-18T18:58:06.465Z,98933.16
2023-01-18T18:59:09.632Z,98934.27
2023-01-18T19:00:13.863Z,98935.23
2023-01-18T19:01:19.279Z,98927.80
2023-01-18T19:02:21.726Z,98933.30
2023-01-18T19:03:27.516Z,98931.88
2023-01-18T19:04:33.137Z,98924.05
2023-01-18T19:05:37.591Z,98932.97
2023-01-18T19:06:42.441Z,98936.17
2023-01-18T19:07:47.704Z,98942.83
2023-01-18T19:08:50.574Z,98941.60
2023-01-18T19:09:54.876Z,98944.13
2023-01-18T19:10:59.085Z,98942.70
2023-01-18T19:12:03.704Z,98938.19
2023-01-18T19:13:10.027Z,98938.06
2023-01-18T19:14:14.677Z,98937.27
2023-01-18T19:15:17.256Z,98935.25
2023-01-18T19:16:20.545Z,98932.17
2023-01-18T19:17:30.395Z,98926.67
2023-01-18T19:18:29.741Z,98930.75
2023-01-18T19:19:34.930Z,98932.89
2023-01-18T19:20:38.330Z,98949.18
2023-01-18T19:21:43.602Z,98947.50
2023-01-18T19:22:50.681Z,98944.72
2023-01-18T19:23:53.742Z,98947.75
2023-01-18T19:24:57.038Z,98948.41
2023-01-18T19:26:00.893Z,98951.10
2023-01-18T19:27:04.508Z,98956.37
2023-01-18T19:28:08.296Z,98951.66
2023-01-18T19:29:12.634Z,98957.20
2023-01-18T19:30:20.084Z,98948.41
2023-01-18T19:31:23.013Z,98951.94
2023-01-18T19:32:25.540Z,98959.77
2023-01-18T19:33:29.477Z,98965.07
2023-01-18T19:34:33.193Z,98970.38
2023-01-18T19:35:40.844Z,98974.80
2023-01-18T19:36:44.798Z,98980.35
2023-01-18T19:37:50.089Z,98982.03
2023-01-18T19:38:59.385Z,98995.05
2023-01-18T19:39:57.911Z,98990.42
2023-01-18T19:41:03.412Z,98989.58
2023-01-18T19:42:06.619Z,98993.98
2023-01-18T19:43:10.243Z,99014.03
2023-01-18T19:44:15.414Z,99005.55
2023-01-18T19:45:27.366Z,99005.61
2023-01-18T19:46:23.557Z,99017.77
2023-01-18T19:47:26.008Z,99011.81
2023-01-18T19:48:32.331Z,99025.79
2023-01-18T19:49:35.509Z,99023.51
2023-01-18T19:50:37.787Z,99018.20
2023-01-18T19:51:44.564Z,99009.81
2023-01-18T19:52:49.159Z,99004.89
2023-01-18T19:53:54.065Z,99021.02
2023-01-18T19:54:58.746Z,99025.59
2023-01-18T19:56:07.198Z,99022.00
2023-01-18T19:57:08.419Z,99018.06
2023-01-18T19:58:12.265Z,99014.52
2023-01-18T19:59:16.904Z,99016.20
2023-01-18T20:00:22.413Z,99006.22
2023-01-18T20:01:35.695Z,99014.70
2023-01-18T20:02:31.549Z,99026.37
2023-01-18T20:03:35.356Z,99028.83
2023-01-18T20:04:38.276Z,99032.40
2023-01-18T20:05:45.140Z,99035.09
2023-01-18T20:06:48.931Z,99036.50
2023-01-18T20:07:52.463Z,99040.11
2023-01-18T20:08:57.731Z,99043.04
2023-01-18T20:10:00.869Z,99048.91
2023-01-18T20:11:05.156Z,99060.83
2023-01-18T20:12:08.261Z,99058.33
2023-01-18T20:13:11.634Z,99069.05
2023-01-18T20:14:14.857Z,99072.63
2023-01-18T20:15:18.553Z,99070.73
2023-01-18T20:16:21.715Z,99082.02
2023-01-18T20:17:25.159Z,99093.37
2023-01-18T20:18:33.130Z,99091.05
2023-01-18T20:19:36.849Z,99090.33
2023-01-18T20:20:43.688Z,99089.61
2023-01-18T20:21:46.987Z,99088.17
2023-01-18T20:22:49.558Z,99093.10
2023-01-18T20:23:54.841Z,99096.14
2023-01-18T20:24:59.200Z,99102.41
2023-01-18T20:26:01.648Z,99098.94
2023-01-18T20:27:15.417Z,99100.15
2023-01-18T20:28:09.789Z,99091.59
2023-01-18T20:29:12.657Z,99095.56
2023-01-18T20:30:16.395Z,99102.16
2023-01-18T20:31:19.816Z,99097.86
2023-01-18T20:32:23.096Z,99096.63
2023-01-18T20:33:26.542Z,99100.97
2023-01-18T20:34:30.313Z,99104.46
2023-01-18T20:35:32.756Z,99111.44
2023-01-18T20:36:38.142Z,99101.58
2023-01-18T20:37:42.089Z,99109.98
2023-01-18T20:38:45.362Z,99110.10
2023-01-18T20:39:49.388Z,99107.61
2023-01-18T20:40:54.751Z,99113.36
2023-01-18T20:41:59.077Z,99106.27
2023-01-18T20:43:03.328Z,99118.89
2023-01-18T20:44:07.035Z,99122.38
2023-01-18T20:45:10.990Z,99120.34
2023-01-18T20:46:14.380Z,99124.80
2023-01-18T20:47:17.054Z,99128.29
2023-01-18T20:48:20.573Z,99120.23
2023-01-18T20:49:37.278Z,99130.44
2023-01-18T20:50:29.868Z,99123.58
2023-01-18T20:51:34.223Z,99127.44
2023-01-18T20:52:37.443Z,99126.59
2023-01-18T20:53:43.898Z,99136.95
2023-01-18T20:54:48.041Z,99136.11
2023-01-18T20:55:50.747Z,99136.95
2023-01-18T20:56:54.137Z,99141.63
2023-01-18T20:57:56.817Z,99146.31
2023-01-18T20:59:00.114Z,99149.19
2023-01-18T21:00:03.624Z,99141.86
2023-01-18T21:01:07.853Z,99150.53
2023-01-18T21:02:11.856Z,99158.58
2023-01-18T21:03:18.107Z,99152.95
2023-01-18T21:04:26.241Z,99150.76
2023-01-18T21:05:30.022Z,99150.26
2023-01-18T21:06:32.705Z,99148.72
2023-01-18T21:07:36.865Z,99148.83
2023-01-18T21:08:40.629Z,99155.30
2023-01-18T21:09:43.820Z,99150.86
2023-01-18T21:10:46.989Z,99158.80
2023-01-18T21:11:51.258Z,99152.16
2023-01-18T21:12:53.721Z,99154.33
2023-01-18T21:14:00.620Z,99162.59
2023-01-18T21:15:06.057Z,99156.66
2023-01-18T21:16:08.834Z,99158.27
2023-01-18T21:17:13.001Z,99164.51
2023-01-18T21:18:16.572Z,99162.28
2023-01-18T21:19:21.111Z,99166.50
2023-01-18T21:20:25.420Z,99165.24
2023-01-18T21:21:30.133Z,99162.71
2023-01-18T21:22:34.294Z,99163.67
2023-01-18T21:23:39.771Z,99158.16
2023-01-18T21:24:45.252Z,99157.53
2023-01-18T21:25:50.700Z,99148.36
2023-01-18T21:26:54.120Z,99160.69
2023-01-18T21:27:59.519Z,99168.51
2023-01-18T21:29:03.319Z,99175.28
2023-01-18T21:30:07.874Z,99170.47
2023-01-18T21:31:11.321Z,99181.89
2023-01-18T21:32:15.069Z,99185.49
2023-01-18T21:33:19.118Z,99189.53
2023-01-18T21:34:21.785Z,99191.00
2023-01-18T21:35:24.130Z,99189.31
2023-01-18T21:36:27.426Z,99189.20
2023-01-18T21:37:30.513Z,99194.38
2023-01-18T21:38:33.080Z,99186.67
2023-01-18T21:39:35.983Z,99183.41
2023-01-18T21:40:38.417Z,99184.87
2023-01-18T21:42:01.247Z,99183.18
2023-01-18T21:43:24.080Z,99188.69
2023-01-18T21:44:45.231Z,99186.89
2023-01-18T21:45:59.491Z,99193.87
2023-01-18T21:47:06.373Z,99190.38
2023-01-18T21:48:10.065Z,99190.38
2023-01-18T21:49:19.511Z,99192.87
2023-01-18T21:50:38.893Z,99194.45
2023-01-18T21:51:59.528Z,99199.00
2023-01-18T21:53:21.637Z,99189.93
2023-01-18T21:54:25.888Z,99199.44
2023-01-18T21:55:31.466Z,99192.36
2023-01-18T21:56:36.882Z,99192.36
2023-01-18T21:57:40.253Z,99185.53
2023-01-18T21:58:55.785Z,99187.11
2023-01-18T21:59:59.416Z,99187.58
2023-01-18T22:01:03.915Z,99188.31
2023-01-18T22:02:06.686Z,99187.47
2023-01-18T22:03:11.147Z,99191.19
2023-01-18T22:04:34.089Z,99195.52
2023-01-18T22:05:40.810Z,99197.31
2023-01-18T22:06:43.909Z,99198.38
2023-01-18T22:07:47.832Z,99201.98
2023-01-18T22:08:51.281Z,99206.96
2023-01-18T22:10:04.032Z,99211.76
2023-01-18T22:11:00.419Z,99212.61
2023-01-18T22:12:04.257Z,99211.98
2023-01-18T22:13:08.736Z,99206.47
2023-01-18T22:14:12.116Z,99212.82
2023-01-18T22:15:17.703Z,99203.63
2023-01-18T22:16:20.604Z,99202.57
2023-01-18T22:17:23.961Z,99217.48
2023-01-18T22:18:27.321Z,99212.19
2023-01-18T22:19:30.671Z,99219.28
2023-01-18T22:20:33.923Z,99219.49
2023-01-18T22:21:37.182Z,99213.72
2023-01-18T22:22:40.876Z,99222.59
2023-01-18T22:23:44.572Z,99222.38
2023-01-18T22:24:47.777Z,99231.47
2023-01-18T22:25:52.952Z,99233.48
2023-01-18T22:27:03.579Z,99238.87
2023-01-18T22:28:09.131Z,99233.94
2023-01-18T22:29:13.854Z,99245.03
2023-01-18T22:30:16.785Z,99238.17
2023-01-18T22:31:21.766Z,99237.00
2023-01-18T22:32:27.041Z,99235.42
2023-01-18T22:33:32.449Z,99233.09
2023-01-18T22:34:36.020Z,99232.14
2023-01-18T22:35:39.749Z,99226.96
2023-01-18T22:36:45.032Z,99237.22
2023-01-18T22:37:48.047Z,99235.31
2023-01-18T22:38:51.827Z,99245.88
2023-01-18T22:39:55.351Z,99233.83
2023-01-18T22:41:03.429Z,99246.20
2023-01-18T22:42:07.072Z,99247.39
2023-01-18T22:43:10.443Z,99250.98
2023-01-18T22:44:15.607Z,99249.39
2023-01-18T22:45:18.764Z,99259.01
2023-01-18T22:46:25.232Z,99268.81
2023-01-18T22:47:30.212Z,99277.80
2023-01-18T22:48:36.686Z,99281.18
2023-01-18T22:49:39.307Z,99282.88
2023-01-18T22:50:43.126Z,99302.86
2023-01-18T22:51:47.384Z,99297.99
2023-01-18T22:52:52.976Z,99299.48
2023-01-18T22:53:58.245Z,99299.79
2023-01-18T22:55:02.790Z,99306.11
2023-01-18T22:56:09.354Z,99305.91
2023-01-18T22:57:13.053Z,99289.95
2023-01-18T22:58:19.268Z,99291.54
2023-01-18T22:59:23.678Z,99293.23
2023-01-18T23:00:28.552Z,99289.53
2023-01-18T23:01:33.003Z,99291.09
2023-01-18T23:02:36.301Z,99292.17
2023-01-18T23:03:38.697Z,99292.89
2023-01-18T23:04:42.059Z,99290.03
2023-01-18T23:05:48.278Z,99296.06
2023-01-18T23:06:54.947Z,99288.89
2023-01-18T23:07:59.628Z,99297.58
2023-01-18T23:09:03.102Z,99298.41
2023-01-18T23:10:05.634Z,99301.59
2023-01-18T23:11:11.446Z,99299.16
2023-01-18T23:12:16.726Z,99297.66
2023-01-18T23:13:22.793Z,99308.22
2023-01-18T23:14:44.737Z,99303.04
2023-01-18T23:16:05.733Z,99315.48
2023-01-18T23:17:28.286Z,99317.05
2023-01-18T23:18:31.905Z,99327.57
2023-01-18T23:19:37.594Z,99322.78
2023-01-18T23:20:40.826Z,99325.00
2023-01-18T23:21:43.466Z,99332.06
2023-01-18T23:22:47.092Z,99326.69
2023-01-18T23:23:50.368Z,99324.05
2023-01-18T23:24:53.693Z,99328.38
2023-01-18T23:25:59.667Z,99327.41
2023-01-18T23:27:04.127Z,99339.55
2023-01-18T23:28:07.420Z,99348.22
2023-01-18T23:29:09.775Z,99344.73
2023-01-18T23:30:14.893Z,99346.33
2023-01-18T23:31:18.118Z,99357.34
2023-01-18T23:32:22.187Z,99361.26
2023-01-18T23:33:25.678Z,99368.33
2023-01-18T23:34:30.024Z,99369.92
2023-01-18T23:35:33.405Z,99381.78
2023-01-18T23:36:36.681Z,99376.28
2023-01-18T23:37:39.931Z,99384.52
2023-01-18T23:39:00.956Z,99384.52
2023-01-18T23:40:24.236Z,99380.61
2023-01-18T23:41:46.089Z,99389.38
2023-01-18T23:43:07.040Z,99400.13
2023-01-18T23:44:29.421Z,99398.34
2023-01-18T23:45:51.649Z,99413.88
2023-01-18T23:47:13.527Z,99408.31
2023-01-18T23:48:36.258Z,99417.08
2023-01-18T23:49:56.785Z,99427.64
2023-01-18T23:51:17.743Z,99425.19
2023-01-18T23:52:39.313Z,99422.09
2023-01-18T23:54:04.335Z,99425.38
2023-01-18T23:55:08.049Z,99432.16
2023-01-18T23:56:10.736Z,99426.04
2023-01-18T23:57:16.248Z,99419.52
2023-01-18T23:59:42.644Z,99414.47
